Sovereign — 9HUE9 — position and weather

sailwx.info

Track history (hours):
 
Tides and Currents Weather Stations Pressure Air Temp Water Temp Dewpoint Dewpoint Depression Visibility Wind Speed Wind Dir Waves Ship Positions

Sovereign

Last reported at 2019-Oct-18 09:30 UTC. Time now 2019-Oct-18 09:33 UTC.
Position N 43°33' E 010°18'.

Length 269 m; draft 7.8 m.

Type: Passenger vessel. MMSI: 249539000.

Date/timePositionNaut miles runAvg speedWind from/ knotsBaromVisibWave heightAir tempDewpointWater temp
2019-Oct-18 09:30N 43°33' E 010°18'0 0.0
2019-Oct-18 09:00N 43°33' E 010°18'0 0.0
2019-Oct-18 08:30N 43°33' E 010°18'0 0.0
2019-Oct-18 08:00N 43°33' E 010°18'0 0.0
2019-Oct-18 07:30N 43°33' E 010°18'0 0.0
2019-Oct-18 07:00N 43°33' E 010°18'0 0.0
2019-Oct-18 06:30N 43°33' E 010°18'0 0.0
2019-Oct-18 06:00N 43°33' E 010°18'0 0.6
2019-Oct-18 05:30N 43°33' E 010°18'3 5.9
2019-Oct-18 05:00N 43°31' E 010°15'5 9.6
2019-Oct-18 04:31N 43°27' E 010°12'713.2
2019-Oct-18 04:01N 43°20' E 010°10'612.4
2019-Oct-18 03:31N 43°14' E 010°09'713.0
2019-Oct-18 03:00N 43°08' E 010°07'612.8
2019-Oct-18 02:31N 43°01' E 010°05'812.9
2019-Oct-18 01:54N 42°54' E 010°03'512.5
2019-Oct-18 01:31N 42°49' E 010°01'610.5
2019-Oct-18 00:57N 42°43' E 010°03'612.4
2019-Oct-18 00:29N 42°39' E 010°09'612.4
2019-Oct-17 23:59N 42°34' E 010°14'812.4
2019-Oct-17 23:19N 42°29' E 010°22'412.5
2019-Oct-17 23:00N 42°26' E 010°25'712.6
2019-Oct-17 22:28N 42°20' E 010°31'812.6
2019-Oct-17 21:51N 42°14' E 010°38'712.6
2019-Oct-17 21:19N 42°09' E 010°44'1312.1
2019-Oct-17 20:13N 42°01' E 010°58'513.3
2019-Oct-17 19:52N 41°59' E 011°04'613.5
2019-Oct-17 19:23N 42°01' E 011°12'513.5
2019-Oct-17 18:59N 42°02' E 011°20'134 5.8
2019-Oct-16 19:53N 40°38' E 013°39'1115.0
2019-Oct-16 19:08N 40°38' E 013°54'215.0
2019-Oct-16 18:59N 40°38' E 013°56'714.5
2019-Oct-16 18:30N 40°40' E 014°05'815.1
2019-Oct-16 18:00N 40°44' E 014°13'612.4
2019-Oct-16 17:30N 40°50' E 014°17'1 1.5
2019-Oct-16 16:46N 40°50' E 014°15'0 0.0
2019-Oct-16 16:16N 40°50' E 014°15'0 0.0
2019-Oct-16 15:34N 40°50' E 014°15'0 0.0
2019-Oct-16 15:22N 40°50' E 014°15'0 0.0
2019-Oct-16 14:46N 40°50' E 014°15'0 0.0
2019-Oct-16 14:22N 40°50' E 014°15'0 0.0
2019-Oct-16 13:34N 40°50' E 014°15'0 0.0
2019-Oct-16 13:22N 40°50' E 014°15'0 0.0
2019-Oct-16 12:52N 40°50' E 014°15'0 0.0
2019-Oct-16 12:22N 40°50' E 014°15'0 0.0
2019-Oct-16 11:52N 40°50' E 014°15'0 0.0
2019-Oct-16 11:28N 40°50' E 014°15'0 0.0
2019-Oct-16 10:52N 40°50' E 014°15'0 0.0
2019-Oct-16 10:28N 40°50' E 014°15'0 0.0
2019-Oct-16 09:58N 40°50' E 014°15'0 0.0
2019-Oct-16 09:28N 40°50' E 014°15'0 0.0
2019-Oct-16 08:58N 40°50' E 014°15'0 0.0
2019-Oct-16 08:16N 40°50' E 014°15'0 0.0
2019-Oct-16 07:58N 40°50' E 014°15'0 0.0
2019-Oct-16 07:28N 40°50' E 014°15'0 0.0
2019-Oct-16 06:52N 40°50' E 014°15'0 0.0
2019-Oct-16 06:28N 40°50' E 014°15'2 3.5
2019-Oct-16 06:00N 40°49' E 014°17'611.6
2019-Oct-16 05:30N 40°44' E 014°13'713.3
2019-Oct-16 05:00N 40°40' E 014°06'611.6
2019-Oct-16 04:30N 40°37' E 013°59'612.6
2019-Oct-16 04:00N 40°36' E 013°51'612.6
2019-Oct-16 03:30N 40°34' E 013°44'612.5
2019-Oct-16 03:00N 40°32' E 013°36'611.7
2019-Oct-16 02:29N 40°32' E 013°28'712.4
2019-Oct-16 01:53N 40°33' E 013°18'512.5
2019-Oct-16 01:28N 40°35' E 013°12'44115.5
2019-Oct-14 20:59N 41°16' E 003°30'3514.5
2019-Oct-14 18:34N 41°16' E 002°44'115.0
2019-Oct-14 18:30N 41°16' E 002°42'815.1
2019-Oct-14 18:00N 41°16' E 002°32'815.5
2019-Oct-14 17:30N 41°16' E 002°22'815.2
2019-Oct-14 17:00N 41°16' E 002°12'5 9.6
2019-Oct-14 16:30N 41°21' E 002°10'1 1.3
2019-Oct-14 15:59N 41°22' E 002°11'0 0.0
2019-Oct-14 15:29N 41°22' E 002°11'0 0.0
2019-Oct-14 14:59N 41°22' E 002°11'0 0.0
2019-Oct-14 14:29N 41°22' E 002°11'0 0.0
2019-Oct-14 13:59N 41°22' E 002°11'0 0.0
2019-Oct-14 13:29N 41°22' E 002°11'0 0.0
2019-Oct-14 12:59N 41°22' E 002°11'0 0.0
2019-Oct-14 12:29N 41°22' E 002°11'0 0.0
2019-Oct-14 11:59N 41°22' E 002°11'0 0.0
2019-Oct-14 11:29N 41°22' E 002°11'0 0.0
2019-Oct-14 10:59N 41°22' E 002°11'0 0.0
2019-Oct-14 10:29N 41°22' E 002°11'0 0.0
2019-Oct-14 09:59N 41°22' E 002°11'0 0.0
2019-Oct-14 09:29N 41°22' E 002°11'0 0.0
2019-Oct-14 08:59N 41°22' E 002°11'0 0.0
2019-Oct-14 08:29N 41°22' E 002°11'0 0.0
2019-Oct-14 07:59N 41°22' E 002°11'0 0.0
2019-Oct-14 07:29N 41°22' E 002°11'0 0.0
2019-Oct-14 06:59N 41°22' E 002°11'0 0.0
2019-Oct-14 06:29N 41°22' E 002°11'0 0.0
2019-Oct-14 05:59N 41°22' E 002°11'0 0.0
2019-Oct-14 05:29N 41°22' E 002°11'0 0.0
2019-Oct-14 04:59N 41°22' E 002°11'0 0.2
2019-Oct-14 04:30N 41°22' E 002°11'4 7.3
2019-Oct-14 04:00N 41°18' E 002°11'611.0
2019-Oct-14 03:30N 41°16' E 002°18'713.5
2019-Oct-14 03:00N 41°16' E 002°27'713.5
2019-Oct-14 02:30N 41°16' E 002°36'713.8
2019-Oct-14 02:00N 41°18' E 002°44'714.5
2019-Oct-14 01:30N 41°22' E 002°53'714.6
2019-Oct-14 01:00N 41°26' E 003°01'714.5
2019-Oct-14 00:30N 41°30' E 003°09'15716.2
2019-Oct-13 14:47N 43°05' E 005°58'2 8.6
2019-Oct-13 14:30N 43°06' E 005°55'1 1.4
2019-Oct-13 13:58N 43°06' E 005°54'0 0.0
2019-Oct-13 13:28N 43°06' E 005°54'0 0.0
2019-Oct-13 12:52N 43°06' E 005°54'0 0.0
2019-Oct-13 12:28N 43°06' E 005°54'0 0.0
2019-Oct-13 11:55N 43°06' E 005°54'0 0.0
2019-Oct-13 11:28N 43°06' E 005°54'0 0.0
2019-Oct-13 10:58N 43°06' E 005°54'0 0.0
2019-Oct-13 10:28N 43°06' E 005°54'0 0.0
2019-Oct-13 09:58N 43°06' E 005°54'0 0.0
2019-Oct-13 09:28N 43°06' E 005°54'0 0.0
2019-Oct-13 08:58N 43°06' E 005°54'0 0.0
2019-Oct-13 08:28N 43°06' E 005°54'0 0.0
2019-Oct-13 07:55N 43°06' E 005°54'0 0.0
2019-Oct-13 07:28N 43°06' E 005°54'0 0.0
2019-Oct-13 06:58N 43°06' E 005°54'0 0.0
2019-Oct-13 06:28N 43°06' E 005°54'0 0.0
2019-Oct-13 05:58N 43°06' E 005°54'0 0.0
2019-Oct-13 05:28N 43°06' E 005°54'0 0.5
2019-Oct-13 05:00N 43°06' E 005°54'4 7.0
2019-Oct-13 04:28N 43°05' E 005°59'20 6.9
2019-Oct-13 01:38N 42°49' E 006°14'1 8.6
2019-Oct-13 01:30N 42°48' E 006°15'4 8.6
2019-Oct-13 01:00N 42°46' E 006°20'10 6.3
2019-Oct-12 23:27N 42°44' E 006°33'23 8.3
2019-Oct-12 20:38N 43°01' E 006°55'1 8.6
2019-Oct-12 20:30N 43°02' E 006°56'4 8.7
2019-Oct-12 20:00N 43°05' E 006°60'4 9.0
2019-Oct-12 19:30N 43°09' E 007°04'5 9.2
2019-Oct-12 19:00N 43°12' E 007°08'5 9.5
2019-Oct-12 18:30N 43°16' E 007°12'5 9.5
2019-Oct-12 18:00N 43°20' E 007°15'5 9.7
2019-Oct-12 17:31N 43°25' E 007°16'5 9.8
2019-Oct-12 17:00N 43°30' E 007°17'5 9.7
2019-Oct-12 16:30N 43°34' E 007°18'5 9.2
2019-Oct-12 16:00N 43°39' E 007°18'3 5.1
2019-Oct-12 15:30N 43°41' E 007°19'0 0.0
2019-Oct-12 14:59N 43°41' E 007°19'0 0.0
2019-Oct-12 14:23N 43°41' E 007°19'0 0.0
2019-Oct-12 13:59N 43°41' E 007°19'0 0.0
2019-Oct-12 13:29N 43°41' E 007°19'0 0.0
2019-Oct-12 12:59N 43°41' E 007°19'0 0.0
2019-Oct-12 12:29N 43°41' E 007°19'0 0.0
2019-Oct-12 11:56N 43°41' E 007°19'0 0.0
2019-Oct-12 11:29N 43°41' E 007°19'0 0.0
2019-Oct-12 10:59N 43°41' E 007°19'0 0.0
2019-Oct-12 10:29N 43°41' E 007°19'0 0.0
2019-Oct-12 09:59N 43°41' E 007°19'0 0.0
2019-Oct-12 09:29N 43°41' E 007°19'0 0.0
2019-Oct-12 08:59N 43°41' E 007°19'0 0.1
2019-Oct-12 08:29N 43°41' E 007°19'0 0.0
2019-Oct-12 07:53N 43°41' E 007°19'0 0.0
2019-Oct-12 07:29N 43°41' E 007°19'0 0.0
2019-Oct-12 06:59N 43°41' E 007°19'0 0.0
2019-Oct-12 06:26N 43°41' E 007°19'0 0.0
2019-Oct-12 05:59N 43°41' E 007°19'0 0.0
2019-Oct-12 05:29N 43°41' E 007°19'1 1.1
2019-Oct-12 05:00N 43°41' E 007°19'3 6.1
2019-Oct-12 04:30N 43°40' E 007°23'612.3
2019-Oct-12 04:00N 43°39' E 007°31'612.6
2019-Oct-12 03:30N 43°39' E 007°40'612.5
2019-Oct-12 03:01N 43°39' E 007°48'713.8
2019-Oct-12 02:30N 43°38' E 007°58'713.5
2019-Oct-12 02:00N 43°38' E 008°07'713.1
2019-Oct-12 01:30N 43°38' E 008°16'612.6
2019-Oct-12 01:00N 43°37' E 008°25'612.6
2019-Oct-12 00:30N 43°37' E 008°34'612.8
2019-Oct-12 00:00N 43°37' E 008°42'612.9
2019-Oct-11 23:30N 43°36' E 008°51'612.9
2019-Oct-11 23:00N 43°36' E 009°00'612.9
2019-Oct-11 22:30N 43°36' E 009°09'612.9
2019-Oct-11 22:00N 43°35' E 009°18'613.0
2019-Oct-11 21:30N 43°35' E 009°27'612.8
2019-Oct-11 21:00N 43°35' E 009°36'613.0
2019-Oct-11 20:30N 43°33' E 009°45'713.1
2019-Oct-11 20:00N 43°32' E 009°53'713.1
2019-Oct-11 19:30N 43°31' E 010°02'612.7
2019-Oct-11 19:00N 43°31' E 010°11'510.2
2019-Oct-11 18:30N 43°33' E 010°17'1 1.5
2019-Oct-11 18:00N 43°33' E 010°18'0 0.0
2019-Oct-11 17:30N 43°33' E 010°18'0 0.0
2019-Oct-11 17:00N 43°33' E 010°18'0 0.0
2019-Oct-11 16:30N 43°33' E 010°18'0 0.0
2019-Oct-11 16:00N 43°33' E 010°18'0 0.0
2019-Oct-11 15:30N 43°33' E 010°18'0 0.0
2019-Oct-11 15:00N 43°33' E 010°18'0 0.0
2019-Oct-11 14:30N 43°33' E 010°18'0 0.0
2019-Oct-11 14:00N 43°33' E 010°18'0 0.0
2019-Oct-11 13:27N 43°33' E 010°18'0 0.0
2019-Oct-11 13:00N 43°33' E 010°18'0 0.0
2019-Oct-11 12:30N 43°33' E 010°18'0 0.0
2019-Oct-11 11:57N 43°33' E 010°18'0 0.0
2019-Oct-11 11:30N 43°33' E 010°18'0 0.0
2019-Oct-11 11:00N 43°33' E 010°18'0 0.0
2019-Oct-11 10:27N 43°33' E 010°18'0 0.0
2019-Oct-11 10:00N 43°33' E 010°18'0 0.0
2019-Oct-11 09:30N 43°33' E 010°18'0 0.0
2019-Oct-11 09:00N 43°33' E 010°18'0 0.0
2019-Oct-11 08:30N 43°33' E 010°18'0 0.0
2019-Oct-11 08:00N 43°33' E 010°18'0 0.0
2019-Oct-11 07:30N 43°33' E 010°18'0 0.0
2019-Oct-11 07:00N 43°33' E 010°18'0 0.0
2019-Oct-11 06:30N 43°33' E 010°18'0 0.0
2019-Oct-11 06:00N 43°33' E 010°18'0 0.4
2019-Oct-11 05:30N 43°33' E 010°18'2 4.1
2019-Oct-11 04:59N 43°32' E 010°16'3 5.6
2019-Oct-11 04:31N 43°30' E 010°13'5811.8
2019-Oct-10 23:36N 42°32' E 010°17'112.8
2019-Oct-10 23:30N 42°31' E 010°18'612.6
2019-Oct-10 23:00N 42°26' E 010°24'612.4
2019-Oct-10 22:30N 42°22' E 010°30'169 6.4
2019-Oct-09 20:09N 40°40' E 013°31'215.7
2019-Oct-09 20:00N 40°40' E 013°34'815.7
2019-Oct-09 19:30N 40°38' E 013°44'815.8
2019-Oct-09 19:00N 40°38' E 013°54'715.2
2019-Oct-09 18:30N 40°39' E 014°04'815.5
2019-Oct-09 18:00N 40°44' E 014°12'713.6
2019-Oct-09 17:30N 40°49' E 014°17'1 2.6
2019-Oct-09 17:00N 40°50' E 014°15'0 0.0
2019-Oct-09 16:30N 40°50' E 014°15'0 0.0
2019-Oct-09 16:00N 40°50' E 014°15'0 0.0
2019-Oct-09 15:30N 40°50' E 014°15'0 0.0
2019-Oct-09 15:00N 40°50' E 014°15'0 0.0
2019-Oct-09 14:30N 40°50' E 014°15'0 0.0
2019-Oct-09 14:00N 40°50' E 014°15'0 0.0
2019-Oct-09 13:30N 40°50' E 014°15'0 0.0
2019-Oct-09 13:00N 40°50' E 014°15'0 0.0
2019-Oct-09 12:30N 40°50' E 014°15'0 0.0
2019-Oct-09 12:00N 40°50' E 014°15'0 0.0
2019-Oct-09 11:30N 40°50' E 014°15'0 0.0
2019-Oct-09 11:00N 40°50' E 014°15'0 0.0
2019-Oct-09 10:30N 40°50' E 014°15'0 0.0
2019-Oct-09 10:00N 40°50' E 014°15'0 0.0
2019-Oct-09 09:30N 40°50' E 014°15'0 0.0
2019-Oct-09 09:00N 40°50' E 014°15'0 0.0
2019-Oct-09 08:30N 40°50' E 014°15'0 0.0
2019-Oct-09 08:00N 40°50' E 014°15'0 0.0
2019-Oct-09 07:30N 40°50' E 014°15'0 0.0
2019-Oct-09 07:00N 40°50' E 014°15'0 0.0
2019-Oct-09 06:30N 40°50' E 014°15'1 2.5
2019-Oct-09 06:01N 40°50' E 014°17'510.5
2019-Oct-09 05:30N 40°45' E 014°14'714.1
2019-Oct-09 05:00N 40°41' E 014°07'612.9
2019-Oct-09 04:30N 40°37' E 013°59'714.0
2019-Oct-09 04:00N 40°35' E 013°50'815.2
2019-Oct-09 03:30N 40°33' E 013°41'815.2
2019-Oct-09 03:00N 40°31' E 013°31'815.1
2019-Oct-09 02:30N 40°33' E 013°22'915.2
2019-Oct-09 01:54N 40°35' E 013°10'8016.0
2019-Oct-08 20:52N 40°56' E 011°27'3315.9
2019-Oct-08 18:46N 41°05' E 010°45'1416.0
2019-Oct-08 17:55N 41°08' E 010°27'716.4
2019-Oct-08 17:30N 41°10' E 010°19'1916.4
2019-Oct-08 16:20N 41°15' E 009°54'5313.6
2019-Oct-08 12:27N 41°17' E 008°44'  
Track history (hours):
 
Tides and Currents Weather Stations Pressure Air Temp Water Temp Dewpoint Dewpoint Depression Visibility Wind Speed Wind Dir Waves Ship Positions

Sovereign

Last reported at 2019-Oct-18 09:30 UTC. Time now 2019-Oct-18 09:33 UTC.
Position N 43°33' E 010°18'.

Length 269 m; draft 7.8 m.

Type: Passenger vessel. MMSI: 249539000.

Date/timePositionNaut miles runAvg speedWind from/ knotsBaromVisibWave heightAir tempDewpointWater temp
2019-Oct-18 09:30N 43°33' E 010°18'0 0.0
2019-Oct-18 09:00N 43°33' E 010°18'0 0.0
2019-Oct-18 08:30N 43°33' E 010°18'0 0.0
2019-Oct-18 08:00N 43°33' E 010°18'0 0.0
2019-Oct-18 07:30N 43°33' E 010°18'0 0.0
2019-Oct-18 07:00N 43°33' E 010°18'0 0.0
2019-Oct-18 06:30N 43°33' E 010°18'0 0.0
2019-Oct-18 06:00N 43°33' E 010°18'0 0.6
2019-Oct-18 05:30N 43°33' E 010°18'3 5.9
2019-Oct-18 05:00N 43°31' E 010°15'5 9.6
2019-Oct-18 04:31N 43°27' E 010°12'713.2
2019-Oct-18 04:01N 43°20' E 010°10'612.4
2019-Oct-18 03:31N 43°14' E 010°09'713.0
2019-Oct-18 03:00N 43°08' E 010°07'612.8
2019-Oct-18 02:31N 43°01' E 010°05'812.9
2019-Oct-18 01:54N 42°54' E 010°03'512.5
2019-Oct-18 01:31N 42°49' E 010°01'610.5
2019-Oct-18 00:57N 42°43' E 010°03'612.4
2019-Oct-18 00:29N 42°39' E 010°09'612.4
2019-Oct-17 23:59N 42°34' E 010°14'812.4
2019-Oct-17 23:19N 42°29' E 010°22'412.5
2019-Oct-17 23:00N 42°26' E 010°25'712.6
2019-Oct-17 22:28N 42°20' E 010°31'812.6
2019-Oct-17 21:51N 42°14' E 010°38'712.6
2019-Oct-17 21:19N 42°09' E 010°44'1312.1
2019-Oct-17 20:13N 42°01' E 010°58'513.3
2019-Oct-17 19:52N 41°59' E 011°04'613.5
2019-Oct-17 19:23N 42°01' E 011°12'513.5
2019-Oct-17 18:59N 42°02' E 011°20'134 5.8
2019-Oct-16 19:53N 40°38' E 013°39'1115.0
2019-Oct-16 19:08N 40°38' E 013°54'215.0
2019-Oct-16 18:59N 40°38' E 013°56'714.5
2019-Oct-16 18:30N 40°40' E 014°05'815.1
2019-Oct-16 18:00N 40°44' E 014°13'612.4
2019-Oct-16 17:30N 40°50' E 014°17'1 1.5
2019-Oct-16 16:46N 40°50' E 014°15'0 0.0
2019-Oct-16 16:16N 40°50' E 014°15'0 0.0
2019-Oct-16 15:34N 40°50' E 014°15'0 0.0
2019-Oct-16 15:22N 40°50' E 014°15'0 0.0
2019-Oct-16 14:46N 40°50' E 014°15'0 0.0
2019-Oct-16 14:22N 40°50' E 014°15'0 0.0
2019-Oct-16 13:34N 40°50' E 014°15'0 0.0
2019-Oct-16 13:22N 40°50' E 014°15'0 0.0
2019-Oct-16 12:52N 40°50' E 014°15'0 0.0
2019-Oct-16 12:22N 40°50' E 014°15'0 0.0
2019-Oct-16 11:52N 40°50' E 014°15'0 0.0
2019-Oct-16 11:28N 40°50' E 014°15'0 0.0
2019-Oct-16 10:52N 40°50' E 014°15'0 0.0
2019-Oct-16 10:28N 40°50' E 014°15'0 0.0
2019-Oct-16 09:58N 40°50' E 014°15'0 0.0
2019-Oct-16 09:28N 40°50' E 014°15'0 0.0
2019-Oct-16 08:58N 40°50' E 014°15'0 0.0
2019-Oct-16 08:16N 40°50' E 014°15'0 0.0
2019-Oct-16 07:58N 40°50' E 014°15'0 0.0
2019-Oct-16 07:28N 40°50' E 014°15'0 0.0
2019-Oct-16 06:52N 40°50' E 014°15'0 0.0
2019-Oct-16 06:28N 40°50' E 014°15'2 3.5
2019-Oct-16 06:00N 40°49' E 014°17'611.6
2019-Oct-16 05:30N 40°44' E 014°13'713.3
2019-Oct-16 05:00N 40°40' E 014°06'611.6
2019-Oct-16 04:30N 40°37' E 013°59'612.6
2019-Oct-16 04:00N 40°36' E 013°51'612.6
2019-Oct-16 03:30N 40°34' E 013°44'612.5
2019-Oct-16 03:00N 40°32' E 013°36'611.7
2019-Oct-16 02:29N 40°32' E 013°28'712.4
2019-Oct-16 01:53N 40°33' E 013°18'512.5
2019-Oct-16 01:28N 40°35' E 013°12'44115.5
2019-Oct-14 20:59N 41°16' E 003°30'3514.5
2019-Oct-14 18:34N 41°16' E 002°44'115.0
2019-Oct-14 18:30N 41°16' E 002°42'815.1
2019-Oct-14 18:00N 41°16' E 002°32'815.5
2019-Oct-14 17:30N 41°16' E 002°22'815.2
2019-Oct-14 17:00N 41°16' E 002°12'5 9.6
2019-Oct-14 16:30N 41°21' E 002°10'1 1.3
2019-Oct-14 15:59N 41°22' E 002°11'0 0.0
2019-Oct-14 15:29N 41°22' E 002°11'0 0.0
2019-Oct-14 14:59N 41°22' E 002°11'0 0.0
2019-Oct-14 14:29N 41°22' E 002°11'0 0.0
2019-Oct-14 13:59N 41°22' E 002°11'0 0.0
2019-Oct-14 13:29N 41°22' E 002°11'0 0.0
2019-Oct-14 12:59N 41°22' E 002°11'0 0.0
2019-Oct-14 12:29N 41°22' E 002°11'0 0.0
2019-Oct-14 11:59N 41°22' E 002°11'0 0.0
2019-Oct-14 11:29N 41°22' E 002°11'0 0.0
2019-Oct-14 10:59N 41°22' E 002°11'0 0.0
2019-Oct-14 10:29N 41°22' E 002°11'0 0.0
2019-Oct-14 09:59N 41°22' E 002°11'0 0.0
2019-Oct-14 09:29N 41°22' E 002°11'0 0.0
2019-Oct-14 08:59N 41°22' E 002°11'0 0.0
2019-Oct-14 08:29N 41°22' E 002°11'0 0.0
2019-Oct-14 07:59N 41°22' E 002°11'0 0.0
2019-Oct-14 07:29N 41°22' E 002°11'0 0.0
2019-Oct-14 06:59N 41°22' E 002°11'0 0.0
2019-Oct-14 06:29N 41°22' E 002°11'0 0.0
2019-Oct-14 05:59N 41°22' E 002°11'0 0.0
2019-Oct-14 05:29N 41°22' E 002°11'0 0.0
2019-Oct-14 04:59N 41°22' E 002°11'0 0.2
2019-Oct-14 04:30N 41°22' E 002°11'4 7.3
2019-Oct-14 04:00N 41°18' E 002°11'611.0
2019-Oct-14 03:30N 41°16' E 002°18'713.5
2019-Oct-14 03:00N 41°16' E 002°27'713.5
2019-Oct-14 02:30N 41°16' E 002°36'713.8
2019-Oct-14 02:00N 41°18' E 002°44'714.5
2019-Oct-14 01:30N 41°22' E 002°53'714.6
2019-Oct-14 01:00N 41°26' E 003°01'714.5
2019-Oct-14 00:30N 41°30' E 003°09'15716.2
2019-Oct-13 14:47N 43°05' E 005°58'2 8.6
2019-Oct-13 14:30N 43°06' E 005°55'1 1.4
2019-Oct-13 13:58N 43°06' E 005°54'0 0.0
2019-Oct-13 13:28N 43°06' E 005°54'0 0.0
2019-Oct-13 12:52N 43°06' E 005°54'0 0.0
2019-Oct-13 12:28N 43°06' E 005°54'0 0.0
2019-Oct-13 11:55N 43°06' E 005°54'0 0.0
2019-Oct-13 11:28N 43°06' E 005°54'0 0.0
2019-Oct-13 10:58N 43°06' E 005°54'0 0.0
2019-Oct-13 10:28N 43°06' E 005°54'0 0.0
2019-Oct-13 09:58N 43°06' E 005°54'0 0.0
2019-Oct-13 09:28N 43°06' E 005°54'0 0.0
2019-Oct-13 08:58N 43°06' E 005°54'0 0.0
2019-Oct-13 08:28N 43°06' E 005°54'0 0.0
2019-Oct-13 07:55N 43°06' E 005°54'0 0.0
2019-Oct-13 07:28N 43°06' E 005°54'0 0.0
2019-Oct-13 06:58N 43°06' E 005°54'0 0.0
2019-Oct-13 06:28N 43°06' E 005°54'0 0.0
2019-Oct-13 05:58N 43°06' E 005°54'0 0.0
2019-Oct-13 05:28N 43°06' E 005°54'0 0.5
2019-Oct-13 05:00N 43°06' E 005°54'4 7.0
2019-Oct-13 04:28N 43°05' E 005°59'20 6.9
2019-Oct-13 01:38N 42°49' E 006°14'1 8.6
2019-Oct-13 01:30N 42°48' E 006°15'4 8.6
2019-Oct-13 01:00N 42°46' E 006°20'10 6.3
2019-Oct-12 23:27N 42°44' E 006°33'23 8.3
2019-Oct-12 20:38N 43°01' E 006°55'1 8.6
2019-Oct-12 20:30N 43°02' E 006°56'4 8.7
2019-Oct-12 20:00N 43°05' E 006°60'4 9.0
2019-Oct-12 19:30N 43°09' E 007°04'5 9.2
2019-Oct-12 19:00N 43°12' E 007°08'5 9.5
2019-Oct-12 18:30N 43°16' E 007°12'5 9.5
2019-Oct-12 18:00N 43°20' E 007°15'5 9.7
2019-Oct-12 17:31N 43°25' E 007°16'5 9.8
2019-Oct-12 17:00N 43°30' E 007°17'5 9.7
2019-Oct-12 16:30N 43°34' E 007°18'5 9.2
2019-Oct-12 16:00N 43°39' E 007°18'3 5.1
2019-Oct-12 15:30N 43°41' E 007°19'0 0.0
2019-Oct-12 14:59N 43°41' E 007°19'0 0.0
2019-Oct-12 14:23N 43°41' E 007°19'0 0.0
2019-Oct-12 13:59N 43°41' E 007°19'0 0.0
2019-Oct-12 13:29N 43°41' E 007°19'0 0.0
2019-Oct-12 12:59N 43°41' E 007°19'0 0.0
2019-Oct-12 12:29N 43°41' E 007°19'0 0.0
2019-Oct-12 11:56N 43°41' E 007°19'0 0.0
2019-Oct-12 11:29N 43°41' E 007°19'0 0.0
2019-Oct-12 10:59N 43°41' E 007°19'0 0.0
2019-Oct-12 10:29N 43°41' E 007°19'0 0.0
2019-Oct-12 09:59N 43°41' E 007°19'0 0.0
2019-Oct-12 09:29N 43°41' E 007°19'0 0.0
2019-Oct-12 08:59N 43°41' E 007°19'0 0.1
2019-Oct-12 08:29N 43°41' E 007°19'0 0.0
2019-Oct-12 07:53N 43°41' E 007°19'0 0.0
2019-Oct-12 07:29N 43°41' E 007°19'0 0.0
2019-Oct-12 06:59N 43°41' E 007°19'0 0.0
2019-Oct-12 06:26N 43°41' E 007°19'0 0.0
2019-Oct-12 05:59N 43°41' E 007°19'0 0.0
2019-Oct-12 05:29N 43°41' E 007°19'1 1.1
2019-Oct-12 05:00N 43°41' E 007°19'3 6.1
2019-Oct-12 04:30N 43°40' E 007°23'612.3
2019-Oct-12 04:00N 43°39' E 007°31'612.6
2019-Oct-12 03:30N 43°39' E 007°40'612.5
2019-Oct-12 03:01N 43°39' E 007°48'713.8
2019-Oct-12 02:30N 43°38' E 007°58'713.5
2019-Oct-12 02:00N 43°38' E 008°07'713.1
2019-Oct-12 01:30N 43°38' E 008°16'612.6
2019-Oct-12 01:00N 43°37' E 008°25'612.6
2019-Oct-12 00:30N 43°37' E 008°34'612.8
2019-Oct-12 00:00N 43°37' E 008°42'612.9
2019-Oct-11 23:30N 43°36' E 008°51'612.9
2019-Oct-11 23:00N 43°36' E 009°00'612.9
2019-Oct-11 22:30N 43°36' E 009°09'612.9
2019-Oct-11 22:00N 43°35' E 009°18'613.0
2019-Oct-11 21:30N 43°35' E 009°27'612.8
2019-Oct-11 21:00N 43°35' E 009°36'613.0
2019-Oct-11 20:30N 43°33' E 009°45'713.1
2019-Oct-11 20:00N 43°32' E 009°53'713.1
2019-Oct-11 19:30N 43°31' E 010°02'612.7
2019-Oct-11 19:00N 43°31' E 010°11'510.2
2019-Oct-11 18:30N 43°33' E 010°17'1 1.5
2019-Oct-11 18:00N 43°33' E 010°18'0 0.0
2019-Oct-11 17:30N 43°33' E 010°18'0 0.0
2019-Oct-11 17:00N 43°33' E 010°18'0 0.0
2019-Oct-11 16:30N 43°33' E 010°18'0 0.0
2019-Oct-11 16:00N 43°33' E 010°18'0 0.0
2019-Oct-11 15:30N 43°33' E 010°18'0 0.0
2019-Oct-11 15:00N 43°33' E 010°18'0 0.0
2019-Oct-11 14:30N 43°33' E 010°18'0 0.0
2019-Oct-11 14:00N 43°33' E 010°18'0 0.0
2019-Oct-11 13:27N 43°33' E 010°18'0 0.0
2019-Oct-11 13:00N 43°33' E 010°18'0 0.0
2019-Oct-11 12:30N 43°33' E 010°18'0 0.0
2019-Oct-11 11:57N 43°33' E 010°18'0 0.0
2019-Oct-11 11:30N 43°33' E 010°18'0 0.0
2019-Oct-11 11:00N 43°33' E 010°18'0 0.0
2019-Oct-11 10:27N 43°33' E 010°18'0 0.0
2019-Oct-11 10:00N 43°33' E 010°18'0 0.0
2019-Oct-11 09:30N 43°33' E 010°18'0 0.0
2019-Oct-11 09:00N 43°33' E 010°18'0 0.0
2019-Oct-11 08:30N 43°33' E 010°18'0 0.0
2019-Oct-11 08:00N 43°33' E 010°18'0 0.0
2019-Oct-11 07:30N 43°33' E 010°18'0 0.0
2019-Oct-11 07:00N 43°33' E 010°18'0 0.0
2019-Oct-11 06:30N 43°33' E 010°18'0 0.0
2019-Oct-11 06:00N 43°33' E 010°18'0 0.4
2019-Oct-11 05:30N 43°33' E 010°18'2 4.1
2019-Oct-11 04:59N 43°32' E 010°16'3 5.6
2019-Oct-11 04:31N 43°30' E 010°13'5811.8
2019-Oct-10 23:36N 42°32' E 010°17'112.8
2019-Oct-10 23:30N 42°31' E 010°18'612.6
2019-Oct-10 23:00N 42°26' E 010°24'612.4
2019-Oct-10 22:30N 42°22' E 010°30'169 6.4
2019-Oct-09 20:09N 40°40' E 013°31'215.7
2019-Oct-09 20:00N 40°40' E 013°34'815.7
2019-Oct-09 19:30N 40°38' E 013°44'815.8
2019-Oct-09 19:00N 40°38' E 013°54'715.2
2019-Oct-09 18:30N 40°39' E 014°04'815.5
2019-Oct-09 18:00N 40°44' E 014°12'713.6
2019-Oct-09 17:30N 40°49' E 014°17'1 2.6
2019-Oct-09 17:00N 40°50' E 014°15'0 0.0
2019-Oct-09 16:30N 40°50' E 014°15'0 0.0
2019-Oct-09 16:00N 40°50' E 014°15'0 0.0
2019-Oct-09 15:30N 40°50' E 014°15'0 0.0
2019-Oct-09 15:00N 40°50' E 014°15'0 0.0
2019-Oct-09 14:30N 40°50' E 014°15'0 0.0
2019-Oct-09 14:00N 40°50' E 014°15'0 0.0
2019-Oct-09 13:30N 40°50' E 014°15'0 0.0
2019-Oct-09 13:00N 40°50' E 014°15'0 0.0
2019-Oct-09 12:30N 40°50' E 014°15'0 0.0
2019-Oct-09 12:00N 40°50' E 014°15'0 0.0
2019-Oct-09 11:30N 40°50' E 014°15'0 0.0
2019-Oct-09 11:00N 40°50' E 014°15'0 0.0
2019-Oct-09 10:30N 40°50' E 014°15'0 0.0
2019-Oct-09 10:00N 40°50' E 014°15'0 0.0
2019-Oct-09 09:30N 40°50' E 014°15'0 0.0
2019-Oct-09 09:00N 40°50' E 014°15'0 0.0
2019-Oct-09 08:30N 40°50' E 014°15'0 0.0
2019-Oct-09 08:00N 40°50' E 014°15'0 0.0
2019-Oct-09 07:30N 40°50' E 014°15'0 0.0
2019-Oct-09 07:00N 40°50' E 014°15'0 0.0
2019-Oct-09 06:30N 40°50' E 014°15'1 2.5
2019-Oct-09 06:01N 40°50' E 014°17'510.5
2019-Oct-09 05:30N 40°45' E 014°14'714.1
2019-Oct-09 05:00N 40°41' E 014°07'612.9
2019-Oct-09 04:30N 40°37' E 013°59'714.0
2019-Oct-09 04:00N 40°35' E 013°50'815.2
2019-Oct-09 03:30N 40°33' E 013°41'815.2
2019-Oct-09 03:00N 40°31' E 013°31'815.1
2019-Oct-09 02:30N 40°33' E 013°22'915.2
2019-Oct-09 01:54N 40°35' E 013°10'8016.0
2019-Oct-08 20:52N 40°56' E 011°27'3315.9
2019-Oct-08 18:46N 41°05' E 010°45'1416.0
2019-Oct-08 17:55N 41°08' E 010°27'716.4
2019-Oct-08 17:30N 41°10' E 010°19'1916.4
2019-Oct-08 16:20N 41°15' E 009°54'5313.6
2019-Oct-08 12:27N 41°17' E 008°44'  

Dump ship's entire track history